sensor_id;sensor_type;location;lat;lon;timestamp;P1;durP1;ratioP1;P2;durP2;ratioP2
7003;SDS011;3542;48.812;9.146;2022-12-24T00:02:07;89.80;;;8.93;;
7003;SDS011;3542;48.812;9.146;2022-12-24T00:04:32;89.47;;;7.73;;
7003;SDS011;3542;48.812;9.146;2022-12-24T00:06:58;89.87;;;7.03;;
7003;SDS011;3542;48.812;9.146;2022-12-24T00:09:23;87.70;;;10.80;;
7003;SDS011;3542;48.812;9.146;2022-12-24T00:11:49;88.07;;;6.40;;
7003;SDS011;3542;48.812;9.146;2022-12-24T00:14:14;88.80;;;6.43;;
7003;SDS011;3542;48.812;9.146;2022-12-24T00:16:40;89.87;;;6.87;;
7003;SDS011;3542;48.812;9.146;2022-12-24T00:19:05;86.67;;;5.70;;
7003;SDS011;3542;48.812;9.146;2022-12-24T00:21:31;93.60;;;8.73;;
7003;SDS011;3542;48.812;9.146;2022-12-24T00:23:56;84.87;;;5.97;;
7003;SDS011;3542;48.812;9.146;2022-12-24T00:26:21;88.43;;;6.57;;
7003;SDS011;3542;48.812;9.146;2022-12-24T00:28:47;88.97;;;7.83;;
7003;SDS011;3542;48.812;9.146;2022-12-24T00:31:14;91.07;;;6.60;;
7003;SDS011;3542;48.812;9.146;2022-12-24T00:33:41;86.90;;;5.50;;
7003;SDS011;3542;48.812;9.146;2022-12-24T00:36:07;90.47;;;7.13;;
7003;SDS011;3542;48.812;9.146;2022-12-24T00:38:33;90.07;;;7.00;;
7003;SDS011;3542;48.812;9.146;2022-12-24T00:40:59;91.67;;;6.20;;
7003;SDS011;3542;48.812;9.146;2022-12-24T00:43:27;89.00;;;7.97;;
7003;SDS011;3542;48.812;9.146;2022-12-24T00:45:53;90.87;;;9.27;;
7003;SDS011;3542;48.812;9.146;2022-12-24T00:48:19;91.33;;;7.03;;
7003;SDS011;3542;48.812;9.146;2022-12-24T00:50:45;85.77;;;6.20;;
7003;SDS011;3542;48.812;9.146;2022-12-24T00:53:10;92.17;;;8.23;;
7003;SDS011;3542;48.812;9.146;2022-12-24T00:55:36;87.07;;;6.50;;
7003;SDS011;3542;48.812;9.146;2022-12-24T00:58:01;90.20;;;7.20;;
7003;SDS011;3542;48.812;9.146;2022-12-24T01:00:27;87.80;;;6.53;;
7003;SDS011;3542;48.812;9.146;2022-12-24T01:02:52;88.83;;;7.00;;
7003;SDS011;3542;48.812;9.146;2022-12-24T01:05:18;89.70;;;5.50;;
7003;SDS011;3542;48.812;9.146;2022-12-24T01:07:45;92.30;;;9.83;;
7003;SDS011;3542;48.812;9.146;2022-12-24T01:10:15;86.77;;;7.00;;
7003;SDS011;3542;48.812;9.146;2022-12-24T01:12:43;90.80;;;7.70;;
7003;SDS011;3542;48.812;9.146;2022-12-24T01:15:09;96.67;;;8.30;;
7003;SDS011;3542;48.812;9.146;2022-12-24T01:17:35;91.90;;;8.00;;
7003;SDS011;3542;48.812;9.146;2022-12-24T01:20:02;90.50;;;6.33;;
7003;SDS011;3542;48.812;9.146;2022-12-24T01:22:29;85.53;;;7.20;;
7003;SDS011;3542;48.812;9.146;2022-12-24T01:24:54;87.77;;;6.60;;
7003;SDS011;3542;48.812;9.146;2022-12-24T01:27:20;90.23;;;6.77;;
7003;SDS011;3542;48.812;9.146;2022-12-24T01:29:45;94.47;;;7.47;;
7003;SDS011;3542;48.812;9.146;2022-12-24T01:32:11;91.93;;;7.20;;
7003;SDS011;3542;48.812;9.146;2022-12-24T01:34:36;90.57;;;7.00;;
7003;SDS011;3542;48.812;9.146;2022-12-24T01:37:02;96.13;;;6.93;;
7003;SDS011;3542;48.812;9.146;2022-12-24T01:39:27;87.50;;;6.27;;
7003;SDS011;3542;48.812;9.146;2022-12-24T01:41:53;90.43;;;6.23;;
7003;SDS011;3542;48.812;9.146;2022-12-24T01:44:39;93.33;;;6.30;;
7003;SDS011;3542;48.812;9.146;2022-12-24T01:47:23;90.33;;;7.10;;
7003;SDS011;3542;48.812;9.146;2022-12-24T01:49:56;102.40;;;7.13;;
7003;SDS011;3542;48.812;9.146;2022-12-24T01:52:34;90.00;;;6.50;;
7003;SDS011;3542;48.812;9.146;2022-12-24T01:55:02;96.53;;;10.30;;
7003;SDS011;3542;48.812;9.146;2022-12-24T01:57:42;81.60;;;4.80;;
7003;SDS011;3542;48.812;9.146;2022-12-24T03:30:59;79.40;;;9.20;;
7003;SDS011;3542;48.812;9.146;2022-12-24T03:33:26;61.13;;;10.00;;
7003;SDS011;3542;48.812;9.146;2022-12-24T03:35:52;34.47;;;2.80;;
7003;SDS011;3542;48.812;9.146;2022-12-24T03:38:19;39.20;;;2.77;;
7003;SDS011;3542;48.812;9.146;2022-12-24T03:40:44;34.80;;;2.53;;
7003;SDS011;3542;48.812;9.146;2022-12-24T03:43:10;36.90;;;2.63;;
7003;SDS011;3542;48.812;9.146;2022-12-24T03:45:36;34.13;;;2.50;;
7003;SDS011;3542;48.812;9.146;2022-12-24T03:48:01;32.17;;;2.53;;
7003;SDS011;3542;48.812;9.146;2022-12-24T03:50:27;32.23;;;2.40;;
7003;SDS011;3542;48.812;9.146;2022-12-24T03:52:53;30.57;;;2.27;;
7003;SDS011;3542;48.812;9.146;2022-12-24T03:55:19;34.93;;;2.20;;
7003;SDS011;3542;48.812;9.146;2022-12-24T03:57:45;33.00;;;2.10;;
7003;SDS011;3542;48.812;9.146;2022-12-24T04:00:10;32.10;;;2.70;;
7003;SDS011;3542;48.812;9.146;2022-12-24T04:02:36;33.90;;;2.60;;
7003;SDS011;3542;48.812;9.146;2022-12-24T04:05:02;34.53;;;2.40;;
7003;SDS011;3542;48.812;9.146;2022-12-24T04:07:28;35.77;;;3.17;;
7003;SDS011;3542;48.812;9.146;2022-12-24T04:09:53;31.13;;;2.20;;
7003;SDS011;3542;48.812;9.146;2022-12-24T04:12:19;29.40;;;2.43;;
7003;SDS011;3542;48.812;9.146;2022-12-24T04:14:44;35.30;;;4.00;;
7003;SDS011;3542;48.812;9.146;2022-12-24T04:17:10;35.10;;;2.97;;
7003;SDS011;3542;48.812;9.146;2022-12-24T04:19:35;127.70;;;107.63;;
7003;SDS011;3542;48.812;9.146;2022-12-24T04:22:01;1999.90;;;999.90;;
7003;SDS011;3542;48.812;9.146;2022-12-24T04:24:26;1999.90;;;999.90;;
7003;SDS011;3542;48.812;9.146;2022-12-24T04:26:52;1999.90;;;999.90;;
7003;SDS011;3542;48.812;9.146;2022-12-24T04:29:17;1999.90;;;999.90;;
7003;SDS011;3542;48.812;9.146;2022-12-24T04:31:43;1999.90;;;999.90;;
7003;SDS011;3542;48.812;9.146;2022-12-24T04:34:08;1999.90;;;999.90;;
7003;SDS011;3542;48.812;9.146;2022-12-24T04:36:34;1999.90;;;999.90;;
7003;SDS011;3542;48.812;9.146;2022-12-24T04:38:59;1999.90;;;999.90;;
7003;SDS011;3542;48.812;9.146;2022-12-24T04:41:25;1999.90;;;999.90;;
7003;SDS011;3542;48.812;9.146;2022-12-24T04:43:51;1999.90;;;999.90;;
7003;SDS011;3542;48.812;9.146;2022-12-24T04:46:19;1999.90;;;999.90;;
7003;SDS011;3542;48.812;9.146;2022-12-24T04:48:48;1999.90;;;999.90;;
7003;SDS011;3542;48.812;9.146;2022-12-24T04:51:15;1999.90;;;999.90;;
7003;SDS011;3542;48.812;9.146;2022-12-24T04:53:41;1999.90;;;999.90;;
7003;SDS011;3542;48.812;9.146;2022-12-24T04:56:17;1999.90;;;999.90;;
7003;SDS011;3542;48.812;9.146;2022-12-24T04:58:44;1999.90;;;999.90;;
7003;SDS011;3542;48.812;9.146;2022-12-24T05:01:14;170.90;;;83.77;;
7003;SDS011;3542;48.812;9.146;2022-12-24T05:03:42;1999.90;;;999.90;;
7003;SDS011;3542;48.812;9.146;2022-12-24T05:06:09;1999.90;;;999.90;;
7003;SDS011;3542;48.812;9.146;2022-12-24T05:08:37;1999.90;;;999.90;;
7003;SDS011;3542;48.812;9.146;2022-12-24T05:11:03;1999.90;;;999.90;;
7003;SDS011;3542;48.812;9.146;2022-12-24T05:13:29;155.00;;;52.20;;
7003;SDS011;3542;48.812;9.146;2022-12-24T05:15:54;1999.90;;;999.90;;
7003;SDS011;3542;48.812;9.146;2022-12-24T05:18:20;1999.90;;;999.90;;
7003;SDS011;3542;48.812;9.146;2022-12-24T05:20:46;1999.90;;;999.90;;
7003;SDS011;3542;48.812;9.146;2022-12-24T05:23:21;170.20;;;82.53;;
7003;SDS011;3542;48.812;9.146;2022-12-24T05:26:41;146.20;;;43.83;;
7003;SDS011;3542;48.812;9.146;2022-12-24T05:29:00;1999.90;;;999.90;;
7003;SDS011;3542;48.812;9.146;2022-12-24T05:31:28;1999.90;;;999.90;;
7003;SDS011;3542;48.812;9.146;2022-12-24T05:33:55;1999.90;;;999.90;;
7003;SDS011;3542;48.812;9.146;2022-12-24T05:36:21;150.77;;;49.07;;
7003;SDS011;3542;48.812;9.146;2022-12-24T05:38:47;165.90;;;83.73;;
7003;SDS011;3542;48.812;9.146;2022-12-24T05:41:13;174.47;;;86.23;;
7003;SDS011;3542;48.812;9.146;2022-12-24T05:43:38;169.00;;;92.63;;
7003;SDS011;3542;48.812;9.146;2022-12-24T05:46:05;172.20;;;76.97;;
7003;SDS011;3542;48.812;9.146;2022-12-24T05:48:33;162.00;;;64.87;;
7003;SDS011;3542;48.812;9.146;2022-12-24T05:50:59;174.13;;;86.47;;
7003;SDS011;3542;48.812;9.146;2022-12-24T05:53:27;173.67;;;102.60;;
7003;SDS011;3542;48.812;9.146;2022-12-24T05:55:53;186.90;;;111.57;;
7003;SDS011;3542;48.812;9.146;2022-12-24T05:58:18;171.57;;;103.03;;
7003;SDS011;3542;48.812;9.146;2022-12-24T06:00:44;161.20;;;63.50;;
7003;SDS011;3542;48.812;9.146;2022-12-24T06:03:09;174.60;;;101.80;;
7003;SDS011;3542;48.812;9.146;2022-12-24T06:05:35;1999.90;;;999.90;;
7003;SDS011;3542;48.812;9.146;2022-12-24T06:08:01;1999.90;;;999.90;;
7003;SDS011;3542;48.812;9.146;2022-12-24T06:10:26;1999.90;;;999.90;;
7003;SDS011;3542;48.812;9.146;2022-12-24T06:12:52;1999.90;;;999.90;;
7003;SDS011;3542;48.812;9.146;2022-12-24T06:15:17;1999.90;;;999.90;;
7003;SDS011;3542;48.812;9.146;2022-12-24T06:17:43;1999.90;;;999.90;;
7003;SDS011;3542;48.812;9.146;2022-12-24T06:20:08;152.17;;;46.40;;
7003;SDS011;3542;48.812;9.146;2022-12-24T06:22:34;138.97;;;36.97;;
7003;SDS011;3542;48.812;9.146;2022-12-24T06:24:59;1389.73;;;694.37;;
7003;SDS011;3542;48.812;9.146;2022-12-24T06:27:25;1999.90;;;999.90;;
7003;SDS011;3542;48.812;9.146;2022-12-24T06:29:50;1999.90;;;999.90;;
7003;SDS011;3542;48.812;9.146;2022-12-24T06:32:16;1999.90;;;999.90;;
7003;SDS011;3542;48.812;9.146;2022-12-24T06:34:41;145.43;;;32.43;;
7003;SDS011;3542;48.812;9.146;2022-12-24T06:37:07;179.77;;;107.83;;
7003;SDS011;3542;48.812;9.146;2022-12-24T06:39:32;1382.07;;;678.90;;
7003;SDS011;3542;48.812;9.146;2022-12-24T06:41:58;157.70;;;59.20;;
7003;SDS011;3542;48.812;9.146;2022-12-24T06:44:23;171.37;;;96.90;;
7003;SDS011;3542;48.812;9.146;2022-12-24T06:46:50;184.10;;;114.33;;
7003;SDS011;3542;48.812;9.146;2022-12-24T06:49:16;169.80;;;96.00;;
7003;SDS011;3542;48.812;9.146;2022-12-24T06:51:41;168.70;;;89.60;;
7003;SDS011;3542;48.812;9.146;2022-12-24T06:54:07;158.07;;;67.53;;
7003;SDS011;3542;48.812;9.146;2022-12-24T06:56:32;151.90;;;38.63;;
7003;SDS011;3542;48.812;9.146;2022-12-24T06:58:58;1999.90;;;999.90;;
7003;SDS011;3542;48.812;9.146;2022-12-24T07:01:24;1999.90;;;999.90;;
7003;SDS011;3542;48.812;9.146;2022-12-24T07:03:49;136.07;;;34.50;;
7003;SDS011;3542;48.812;9.146;2022-12-24T07:06:19;169.30;;;94.30;;
7003;SDS011;3542;48.812;9.146;2022-12-24T07:08:49;170.07;;;100.20;;
7003;SDS011;3542;48.812;9.146;2022-12-24T07:11:15;176.53;;;104.17;;
7003;SDS011;3542;48.812;9.146;2022-12-24T07:13:41;162.10;;;67.40;;
7003;SDS011;3542;48.812;9.146;2022-12-24T07:16:07;152.87;;;67.83;;
7003;SDS011;3542;48.812;9.146;2022-12-24T07:18:32;184.43;;;138.70;;
7003;SDS011;3542;48.812;9.146;2022-12-24T07:20:58;166.43;;;74.73;;
7003;SDS011;3542;48.812;9.146;2022-12-24T07:23:24;169.70;;;66.17;;
7003;SDS011;3542;48.812;9.146;2022-12-24T07:25:49;169.50;;;79.77;;
7003;SDS011;3542;48.812;9.146;2022-12-24T07:28:15;179.33;;;101.90;;
7003;SDS011;3542;48.812;9.146;2022-12-24T07:30:41;175.37;;;95.70;;
7003;SDS011;3542;48.812;9.146;2022-12-24T07:33:06;176.00;;;86.63;;
7003;SDS011;3542;48.812;9.146;2022-12-24T07:35:32;171.80;;;85.37;;
7003;SDS011;3542;48.812;9.146;2022-12-24T07:37:58;148.97;;;49.00;;
7003;SDS011;3542;48.812;9.146;2022-12-24T07:40:23;159.67;;;70.97;;
7003;SDS011;3542;48.812;9.146;2022-12-24T07:42:49;164.43;;;80.17;;
7003;SDS011;3542;48.812;9.146;2022-12-24T07:45:14;179.40;;;117.93;;
7003;SDS011;3542;48.812;9.146;2022-12-24T07:47:40;164.57;;;88.77;;
7003;SDS011;3542;48.812;9.146;2022-12-24T07:50:05;156.00;;;79.57;;
7003;SDS011;3542;48.812;9.146;2022-12-24T07:52:32;160.43;;;84.73;;
7003;SDS011;3542;48.812;9.146;2022-12-24T07:54:57;171.97;;;104.77;;
7003;SDS011;3542;48.812;9.146;2022-12-24T07:57:23;170.17;;;105.80;;
7003;SDS011;3542;48.812;9.146;2022-12-24T07:59:48;174.70;;;108.80;;
7003;SDS011;3542;48.812;9.146;2022-12-24T08:02:14;167.10;;;97.90;;
7003;SDS011;3542;48.812;9.146;2022-12-24T08:04:39;170.20;;;95.00;;
7003;SDS011;3542;48.812;9.146;2022-12-24T08:07:05;183.33;;;104.60;;
7003;SDS011;3542;48.812;9.146;2022-12-24T08:09:32;171.27;;;106.30;;
7003;SDS011;3542;48.812;9.146;2022-12-24T08:11:58;172.47;;;102.27;;
7003;SDS011;3542;48.812;9.146;2022-12-24T08:14:26;152.67;;;72.87;;
7003;SDS011;3542;48.812;9.146;2022-12-24T08:16:52;172.40;;;87.00;;
7003;SDS011;3542;48.812;9.146;2022-12-24T08:19:17;136.57;;;44.63;;
7003;SDS011;3542;48.812;9.146;2022-12-24T08:21:43;160.60;;;73.57;;
7003;SDS011;3542;48.812;9.146;2022-12-24T08:24:08;155.37;;;73.90;;
7003;SDS011;3542;48.812;9.146;2022-12-24T08:26:34;155.30;;;71.10;;
7003;SDS011;3542;48.812;9.146;2022-12-24T08:29:00;148.00;;;56.90;;
7003;SDS011;3542;48.812;9.146;2022-12-24T08:31:26;155.10;;;54.30;;
7003;SDS011;3542;48.812;9.146;2022-12-24T08:33:51;134.27;;;44.20;;
7003;SDS011;3542;48.812;9.146;2022-12-24T08:36:17;142.70;;;52.80;;
7003;SDS011;3542;48.812;9.146;2022-12-24T08:38:42;151.30;;;69.33;;
7003;SDS011;3542;48.812;9.146;2022-12-24T08:41:08;169.03;;;101.93;;
7003;SDS011;3542;48.812;9.146;2022-12-24T08:43:33;148.00;;;59.67;;
7003;SDS011;3542;48.812;9.146;2022-12-24T08:46:03;142.90;;;56.60;;
7003;SDS011;3542;48.812;9.146;2022-12-24T08:48:30;150.40;;;64.50;;
7003;SDS011;3542;48.812;9.146;2022-12-24T08:50:56;155.60;;;60.13;;
7003;SDS011;3542;48.812;9.146;2022-12-24T08:53:21;148.30;;;49.80;;
7003;SDS011;3542;48.812;9.146;2022-12-24T08:55:47;162.70;;;79.30;;
7003;SDS011;3542;48.812;9.146;2022-12-24T08:58:13;133.53;;;44.80;;
7003;SDS011;3542;48.812;9.146;2022-12-24T09:00:38;131.70;;;36.63;;
7003;SDS011;3542;48.812;9.146;2022-12-24T09:03:04;151.67;;;75.50;;
7003;SDS011;3542;48.812;9.146;2022-12-24T09:05:29;161.60;;;87.57;;
7003;SDS011;3542;48.812;9.146;2022-12-24T09:07:55;142.77;;;52.67;;
7003;SDS011;3542;48.812;9.146;2022-12-24T09:10:21;172.57;;;99.03;;
7003;SDS011;3542;48.812;9.146;2022-12-24T09:12:47;135.67;;;46.03;;
7003;SDS011;3542;48.812;9.146;2022-12-24T09:15:12;138.63;;;43.20;;
7003;SDS011;3542;48.812;9.146;2022-12-24T09:17:38;133.60;;;33.70;;
7003;SDS011;3542;48.812;9.146;2022-12-24T09:20:04;126.80;;;29.87;;
7003;SDS011;3542;48.812;9.146;2022-12-24T09:22:30;127.33;;;38.20;;
7003;SDS011;3542;48.812;9.146;2022-12-24T09:24:58;127.73;;;34.37;;
7003;SDS011;3542;48.812;9.146;2022-12-24T09:27:24;125.23;;;39.23;;
7003;SDS011;3542;48.812;9.146;2022-12-24T09:29:49;129.90;;;38.20;;
7003;SDS011;3542;48.812;9.146;2022-12-24T09:32:15;127.03;;;42.70;;
7003;SDS011;3542;48.812;9.146;2022-12-24T09:34:41;130.73;;;45.97;;
7003;SDS011;3542;48.812;9.146;2022-12-24T09:37:06;127.87;;;28.20;;
7003;SDS011;3542;48.812;9.146;2022-12-24T09:39:32;110.57;;;17.30;;
7003;SDS011;3542;48.812;9.146;2022-12-24T09:47:23;111.63;;;26.87;;
7003;SDS011;3542;48.812;9.146;2022-12-24T09:50:03;99.50;;;13.93;;
7003;SDS011;3542;48.812;9.146;2022-12-24T09:52:45;101.87;;;15.80;;
7003;SDS011;3542;48.812;9.146;2022-12-24T09:57:44;40.50;;;3.03;;
7003;SDS011;3542;48.812;9.146;2022-12-24T10:00:15;33.00;;;3.03;;
7003;SDS011;3542;48.812;9.146;2022-12-24T10:02:45;32.73;;;2.10;;
7003;SDS011;3542;48.812;9.146;2022-12-24T10:05:14;35.60;;;2.30;;
7003;SDS011;3542;48.812;9.146;2022-12-24T10:07:54;30.90;;;2.50;;
7003;SDS011;3542;48.812;9.146;2022-12-24T10:10:45;32.23;;;2.57;;
7003;SDS011;3542;48.812;9.146;2022-12-24T10:21:12;28.33;;;2.20;;
7003;SDS011;3542;48.812;9.146;2022-12-24T10:26:25;46.73;;;3.50;;
7003;SDS011;3542;48.812;9.146;2022-12-24T10:28:55;44.00;;;2.87;;
7003;SDS011;3542;48.812;9.146;2022-12-24T10:31:25;43.87;;;2.93;;
7003;SDS011;3542;48.812;9.146;2022-12-24T10:33:56;56.20;;;3.80;;
7003;SDS011;3542;48.812;9.146;2022-12-24T10:36:27;72.67;;;36.83;;
7003;SDS011;3542;48.812;9.146;2022-12-24T10:38:53;87.40;;;4.60;;
7003;SDS011;3542;48.812;9.146;2022-12-24T10:41:19;101.47;;;12.43;;
7003;SDS011;3542;48.812;9.146;2022-12-24T10:43:45;98.37;;;11.63;;
7003;SDS011;3542;48.812;9.146;2022-12-24T10:54:20;88.83;;;8.07;;
7003;SDS011;3542;48.812;9.146;2022-12-24T10:56:48;90.57;;;9.20;;
7003;SDS011;3542;48.812;9.146;2022-12-24T11:02:03;68.20;;;12.13;;
7003;SDS011;3542;48.812;9.146;2022-12-24T11:04:56;88.80;;;9.80;;
7003;SDS011;3542;48.812;9.146;2022-12-24T11:07:26;77.90;;;7.40;;
7003;SDS011;3542;48.812;9.146;2022-12-24T11:09:56;77.50;;;6.23;;
7003;SDS011;3542;48.812;9.146;2022-12-24T11:12:24;79.60;;;4.50;;
7003;SDS011;3542;48.812;9.146;2022-12-24T11:15:01;67.83;;;4.30;;
7003;SDS011;3542;48.812;9.146;2022-12-24T11:17:31;62.80;;;3.63;;
7003;SDS011;3542;48.812;9.146;2022-12-24T11:19:57;69.90;;;3.87;;
7003;SDS011;3542;48.812;9.146;2022-12-24T11:22:28;63.70;;;5.30;;
7003;SDS011;3542;48.812;9.146;2022-12-24T11:25:02;68.40;;;5.90;;
7003;SDS011;3542;48.812;9.146;2022-12-24T11:27:49;72.53;;;4.53;;
7003;SDS011;3542;48.812;9.146;2022-12-24T11:32:48;68.50;;;6.43;;
7003;SDS011;3542;48.812;9.146;2022-12-24T11:35:16;73.37;;;4.43;;
7003;SDS011;3542;48.812;9.146;2022-12-24T11:37:45;71.47;;;3.33;;
7003;SDS011;3542;48.812;9.146;2022-12-24T11:40:19;87.40;;;3.70;;
7003;SDS011;3542;48.812;9.146;2022-12-24T11:42:47;71.07;;;3.60;;
7003;SDS011;3542;48.812;9.146;2022-12-24T11:45:21;72.50;;;3.90;;
7003;SDS011;3542;48.812;9.146;2022-12-24T11:47:49;64.67;;;4.00;;
7003;SDS011;3542;48.812;9.146;2022-12-24T11:50:29;73.10;;;3.20;;
7003;SDS011;3542;48.812;9.146;2022-12-24T11:55:32;70.60;;;3.67;;
7003;SDS011;3542;48.812;9.146;2022-12-24T11:58:15;75.90;;;4.47;;
7003;SDS011;3542;48.812;9.146;2022-12-24T12:00:44;73.40;;;4.40;;
7003;SDS011;3542;48.812;9.146;2022-12-24T12:05:59;24.13;;;3.20;;
7003;SDS011;3542;48.812;9.146;2022-12-24T12:08:28;18.43;;;2.53;;
7003;SDS011;3542;48.812;9.146;2022-12-24T12:10:55;55.57;;;4.60;;
7003;SDS011;3542;48.812;9.146;2022-12-24T12:13:28;30.17;;;2.90;;
7003;SDS011;3542;48.812;9.146;2022-12-24T12:18:37;32.80;;;2.67;;
7003;SDS011;3542;48.812;9.146;2022-12-24T12:21:05;30.23;;;2.77;;
7003;SDS011;3542;48.812;9.146;2022-12-24T12:23:43;28.30;;;2.73;;
7003;SDS011;3542;48.812;9.146;2022-12-24T12:26:16;26.20;;;2.40;;
7003;SDS011;3542;48.812;9.146;2022-12-24T12:28:48;35.80;;;2.60;;
7003;SDS011;3542;48.812;9.146;2022-12-24T12:31:23;35.40;;;2.90;;
7003;SDS011;3542;48.812;9.146;2022-12-24T12:34:09;31.70;;;2.30;;
7003;SDS011;3542;48.812;9.146;2022-12-24T12:39:44;31.63;;;2.67;;
7003;SDS011;3542;48.812;9.146;2022-12-24T12:44:56;28.57;;;2.53;;
7003;SDS011;3542;48.812;9.146;2022-12-24T12:47:53;34.50;;;3.27;;
7003;SDS011;3542;48.812;9.146;2022-12-24T12:56:27;36.50;;;3.70;;
7003;SDS011;3542;48.812;9.146;2022-12-24T12:59:03;38.10;;;3.30;;
7003;SDS011;3542;48.812;9.146;2022-12-24T13:01:49;33.30;;;3.60;;
7003;SDS011;3542;48.812;9.146;2022-12-24T13:04:46;35.23;;;6.10;;
7003;SDS011;3542;48.812;9.146;2022-12-24T13:07:40;34.30;;;4.10;;
7003;SDS011;3542;48.812;9.146;2022-12-24T13:10:30;30.33;;;3.40;;
7003;SDS011;3542;48.812;9.146;2022-12-24T13:13:05;39.33;;;3.27;;
7003;SDS011;3542;48.812;9.146;2022-12-24T13:21:19;36.33;;;3.23;;
7003;SDS011;3542;48.812;9.146;2022-12-24T13:23:47;39.27;;;6.10;;
7003;SDS011;3542;48.812;9.146;2022-12-24T13:26:13;33.80;;;3.10;;
7003;SDS011;3542;48.812;9.146;2022-12-24T13:28:40;30.67;;;2.47;;
7003;SDS011;3542;48.812;9.146;2022-12-24T13:36:05;36.50;;;3.40;;
7003;SDS011;3542;48.812;9.146;2022-12-24T13:44:16;34.83;;;2.67;;
7003;SDS011;3542;48.812;9.146;2022-12-24T13:54:41;38.60;;;3.37;;
7003;SDS011;3542;48.812;9.146;2022-12-24T14:02:50;31.50;;;3.07;;
7003;SDS011;3542;48.812;9.146;2022-12-24T14:05:43;33.20;;;4.00;;
7003;SDS011;3542;48.812;9.146;2022-12-24T14:08:13;35.60;;;4.00;;
7003;SDS011;3542;48.812;9.146;2022-12-24T14:11:00;37.73;;;7.30;;
7003;SDS011;3542;48.812;9.146;2022-12-24T14:14:24;40.27;;;5.80;;
7003;SDS011;3542;48.812;9.146;2022-12-24T14:16:21;31.77;;;3.60;;
7003;SDS011;3542;48.812;9.146;2022-12-24T14:21:51;33.37;;;4.47;;
7003;SDS011;3542;48.812;9.146;2022-12-24T14:24:35;29.63;;;3.80;;
7003;SDS011;3542;48.812;9.146;2022-12-24T14:27:13;30.83;;;4.70;;
7003;SDS011;3542;48.812;9.146;2022-12-24T14:30:03;31.87;;;4.17;;
7003;SDS011;3542;48.812;9.146;2022-12-24T14:32:40;30.80;;;3.60;;
7003;SDS011;3542;48.812;9.146;2022-12-24T14:38:01;34.80;;;4.80;;
7003;SDS011;3542;48.812;9.146;2022-12-24T14:40:37;32.37;;;4.37;;
7003;SDS011;3542;48.812;9.146;2022-12-24T14:43:27;31.10;;;3.80;;
7003;SDS011;3542;48.812;9.146;2022-12-24T14:46:18;34.83;;;4.20;;
7003;SDS011;3542;48.812;9.146;2022-12-24T14:48:59;33.83;;;3.77;;
7003;SDS011;3542;48.812;9.146;2022-12-24T14:51:38;33.60;;;3.50;;
7003;SDS011;3542;48.812;9.146;2022-12-24T14:54:12;29.10;;;4.60;;
7003;SDS011;3542;48.812;9.146;2022-12-24T14:59:45;32.70;;;6.67;;
7003;SDS011;3542;48.812;9.146;2022-12-24T15:02:22;35.37;;;4.77;;
7003;SDS011;3542;48.812;9.146;2022-12-24T15:05:03;36.90;;;5.90;;
7003;SDS011;3542;48.812;9.146;2022-12-24T15:07:30;33.33;;;4.70;;
7003;SDS011;3542;48.812;9.146;2022-12-24T15:09:57;30.70;;;4.90;;
7003;SDS011;3542;48.812;9.146;2022-12-24T15:12:22;33.43;;;4.13;;
7003;SDS011;3542;48.812;9.146;2022-12-24T15:14:49;34.73;;;5.47;;
7003;SDS011;3542;48.812;9.146;2022-12-24T15:17:14;38.77;;;5.17;;
7003;SDS011;3542;48.812;9.146;2022-12-24T15:19:41;27.90;;;4.00;;
7003;SDS011;3542;48.812;9.146;2022-12-24T15:22:09;34.07;;;4.87;;
7003;SDS011;3542;48.812;9.146;2022-12-24T15:24:43;30.03;;;4.70;;
7003;SDS011;3542;48.812;9.146;2022-12-24T15:27:13;33.17;;;5.90;;
7003;SDS011;3542;48.812;9.146;2022-12-24T15:29:47;38.53;;;5.90;;
7003;SDS011;3542;48.812;9.146;2022-12-24T15:32:15;33.00;;;4.80;;
7003;SDS011;3542;48.812;9.146;2022-12-24T15:34:46;41.73;;;6.13;;
7003;SDS011;3542;48.812;9.146;2022-12-24T15:37:21;34.90;;;4.83;;
7003;SDS011;3542;48.812;9.146;2022-12-24T15:39:53;37.87;;;4.63;;
7003;SDS011;3542;48.812;9.146;2022-12-24T15:42:24;36.47;;;5.93;;
7003;SDS011;3542;48.812;9.146;2022-12-24T15:47:34;29.63;;;5.13;;
7003;SDS011;3542;48.812;9.146;2022-12-24T15:50:12;43.03;;;6.00;;
7003;SDS011;3542;48.812;9.146;2022-12-24T15:52:42;32.70;;;5.20;;
7003;SDS011;3542;48.812;9.146;2022-12-24T15:58:12;28.33;;;4.60;;
7003;SDS011;3542;48.812;9.146;2022-12-24T16:06:16;30.37;;;4.87;;
7003;SDS011;3542;48.812;9.146;2022-12-24T16:08:42;30.17;;;4.20;;
7003;SDS011;3542;48.812;9.146;2022-12-24T16:13:41;29.10;;;4.43;;
7003;SDS011;3542;48.812;9.146;2022-12-24T16:16:15;49.53;;;6.10;;
7003;SDS011;3542;48.812;9.146;2022-12-24T16:24:03;34.23;;;5.37;;
7003;SDS011;3542;48.812;9.146;2022-12-24T16:26:40;40.87;;;5.97;;
7003;SDS011;3542;48.812;9.146;2022-12-24T16:29:06;32.20;;;6.10;;
7003;SDS011;3542;48.812;9.146;2022-12-24T16:31:33;30.70;;;6.10;;
7003;SDS011;3542;48.812;9.146;2022-12-24T16:34:01;35.23;;;6.00;;
7003;SDS011;3542;48.812;9.146;2022-12-24T16:36:28;31.27;;;4.80;;
7003;SDS011;3542;48.812;9.146;2022-12-24T16:38:55;29.33;;;4.87;;
7003;SDS011;3542;48.812;9.146;2022-12-24T16:41:40;32.87;;;5.07;;
7003;SDS011;3542;48.812;9.146;2022-12-24T16:44:24;31.97;;;4.60;;
7003;SDS011;3542;48.812;9.146;2022-12-24T16:46:49;29.70;;;5.50;;
7003;SDS011;3542;48.812;9.146;2022-12-24T16:49:17;32.50;;;4.37;;
7003;SDS011;3542;48.812;9.146;2022-12-24T16:51:44;33.67;;;4.53;;
7003;SDS011;3542;48.812;9.146;2022-12-24T16:54:11;31.40;;;5.77;;
7003;SDS011;3542;48.812;9.146;2022-12-24T16:56:38;47.13;;;5.70;;
7003;SDS011;3542;48.812;9.146;2022-12-24T16:59:04;39.13;;;5.70;;
7003;SDS011;3542;48.812;9.146;2022-12-24T17:01:30;29.40;;;5.57;;
7003;SDS011;3542;48.812;9.146;2022-12-24T17:03:55;34.77;;;4.40;;
7003;SDS011;3542;48.812;9.146;2022-12-24T17:06:21;35.73;;;5.43;;
7003;SDS011;3542;48.812;9.146;2022-12-24T17:08:47;34.50;;;4.67;;
7003;SDS011;3542;48.812;9.146;2022-12-24T17:11:13;30.80;;;4.37;;
7003;SDS011;3542;48.812;9.146;2022-12-24T17:13:38;32.83;;;4.30;;
7003;SDS011;3542;48.812;9.146;2022-12-24T17:16:04;31.43;;;4.17;;
7003;SDS011;3542;48.812;9.146;2022-12-24T17:18:30;35.53;;;5.00;;
7003;SDS011;3542;48.812;9.146;2022-12-24T17:20:59;34.07;;;5.17;;
7003;SDS011;3542;48.812;9.146;2022-12-24T17:23:25;30.63;;;5.23;;
7003;SDS011;3542;48.812;9.146;2022-12-24T17:25:51;32.97;;;4.70;;
7003;SDS011;3542;48.812;9.146;2022-12-24T17:28:16;35.27;;;5.00;;
7003;SDS011;3542;48.812;9.146;2022-12-24T17:30:42;31.70;;;5.60;;
7003;SDS011;3542;48.812;9.146;2022-12-24T17:33:07;39.17;;;7.00;;
7003;SDS011;3542;48.812;9.146;2022-12-24T17:35:33;38.17;;;8.87;;
7003;SDS011;3542;48.812;9.146;2022-12-24T17:38:03;32.73;;;6.30;;
7003;SDS011;3542;48.812;9.146;2022-12-24T17:40:29;37.17;;;12.27;;
7003;SDS011;3542;48.812;9.146;2022-12-24T17:42:54;38.83;;;11.30;;
7003;SDS011;3542;48.812;9.146;2022-12-24T17:45:20;36.50;;;10.30;;
7003;SDS011;3542;48.812;9.146;2022-12-24T17:47:45;39.40;;;9.03;;
7003;SDS011;3542;48.812;9.146;2022-12-24T17:50:11;28.80;;;8.40;;
7003;SDS011;3542;48.812;9.146;2022-12-24T17:52:36;38.97;;;8.83;;
7003;SDS011;3542;48.812;9.146;2022-12-24T17:55:02;49.00;;;10.93;;
7003;SDS011;3542;48.812;9.146;2022-12-24T17:57:28;43.17;;;11.57;;
7003;SDS011;3542;48.812;9.146;2022-12-24T17:59:53;53.50;;;12.57;;
7003;SDS011;3542;48.812;9.146;2022-12-24T18:02:21;44.47;;;12.57;;
7003;SDS011;3542;48.812;9.146;2022-12-24T18:04:46;51.73;;;14.57;;
7003;SDS011;3542;48.812;9.146;2022-12-24T18:07:12;45.07;;;14.00;;
7003;SDS011;3542;48.812;9.146;2022-12-24T18:09:38;48.83;;;13.73;;
7003;SDS011;3542;48.812;9.146;2022-12-24T18:12:03;41.43;;;13.83;;
7003;SDS011;3542;48.812;9.146;2022-12-24T18:14:29;47.47;;;15.00;;
7003;SDS011;3542;48.812;9.146;2022-12-24T18:16:55;53.90;;;16.53;;